createdAt,value
2022-09-28T00:00:26.205Z,15.37
2022-09-28T00:02:57.702Z,14.35
2022-09-28T00:05:28.261Z,17.88
2022-09-28T00:07:58.036Z,17.48
2022-09-28T00:10:26.797Z,14.70
2022-09-28T00:12:56.471Z,14.83
2022-09-28T00:15:25.809Z,15.38
2022-09-28T00:17:54.720Z,16.73
2022-09-28T00:20:23.461Z,17.80
2022-09-28T00:22:53.799Z,19.23
2022-09-28T00:25:25.022Z,15.73
2022-09-28T00:27:54.162Z,16.20
2022-09-28T00:30:22.822Z,16.25
2022-09-28T00:32:51.660Z,16.15
2022-09-28T00:35:20.372Z,17.52
2022-09-28T00:37:52.268Z,17.23
2022-09-28T00:40:21.183Z,17.60
2022-09-28T00:42:50.071Z,16.23
2022-09-28T00:45:19.024Z,18.45
2022-09-28T00:47:53.120Z,18.27
2022-09-28T00:50:28.197Z,17.83
2022-09-28T00:53:05.553Z,19.52
2022-09-28T00:55:43.122Z,14.40
2022-09-28T00:58:16.997Z,21.08
2022-09-28T01:00:45.950Z,14.85
2022-09-28T01:03:15.490Z,18.93
2022-09-28T01:05:47.162Z,16.20
2022-09-28T01:08:21.273Z,17.83
2022-09-28T01:10:51.283Z,16.60
2022-09-28T01:13:24.718Z,17.50
2022-09-28T01:16:08.894Z,18.77
2022-09-28T01:18:54.891Z,20.48
2022-09-28T01:21:25.119Z,15.98
2022-09-28T01:24:26.554Z,16.63
2022-09-28T01:27:16.755Z,16.17
2022-09-28T01:29:56.015Z,16.63
2022-09-28T01:32:45.168Z,16.90
2022-09-28T01:35:22.247Z,17.05
2022-09-28T01:37:58.647Z,20.73
2022-09-28T01:40:31.599Z,19.08
2022-09-28T01:43:09.319Z,18.50
2022-09-28T01:45:45.882Z,15.95
2022-09-28T01:48:24.165Z,18.27
2022-09-28T01:50:59.546Z,16.30
2022-09-28T01:53:37.223Z,21.33
2022-09-28T01:56:13.614Z,22.20
2022-09-28T01:58:50.204Z,21.17
2022-09-28T02:01:25.596Z,25.60
2022-09-28T02:04:03.804Z,19.17
2022-09-28T02:06:40.649Z,21.15
2022-09-28T02:09:15.356Z,24.80
2022-09-28T02:11:55.133Z,21.98
2022-09-28T02:14:27.480Z,25.02
2022-09-28T02:16:58.543Z,25.77
2022-09-28T02:19:34.088Z,28.35
2022-09-28T02:22:14.637Z,33.57
2022-09-28T02:24:56.585Z,33.75
2022-09-28T02:27:39.202Z,33.72
2022-09-28T02:30:11.353Z,27.17
2022-09-28T02:32:45.615Z,32.13
2022-09-28T02:35:17.080Z,29.57
2022-09-28T02:37:52.918Z,31.58
2022-09-28T02:40:27.963Z,27.90
2022-09-28T02:43:09.762Z,31.52
2022-09-28T02:45:58.213Z,22.73
2022-09-28T02:49:10.593Z,20.93
2022-09-28T02:51:59.397Z,21.45
2022-09-28T02:55:13.673Z,23.67
2022-09-28T02:58:04.430Z,15.10
2022-09-28T03:00:43.928Z,17.80
2022-09-28T03:03:25.411Z,19.03
2022-09-28T03:06:04.556Z,19.23
2022-09-28T03:08:46.249Z,19.83
2022-09-28T03:11:22.859Z,16.67
2022-09-28T03:13:54.431Z,18.05
2022-09-28T03:16:32.050Z,19.93
2022-09-28T03:19:01.026Z,16.50
2022-09-28T03:21:29.794Z,20.60
2022-09-28T03:23:58.593Z,17.05
2022-09-28T03:26:27.298Z,16.52
2022-09-28T03:28:55.996Z,17.30
2022-09-28T03:31:26.787Z,19.65
2022-09-28T03:33:57.068Z,20.38
2022-09-28T03:36:26.104Z,24.50
2022-09-28T03:38:56.319Z,24.02
2022-09-28T03:41:27.819Z,20.93
2022-09-28T03:43:56.672Z,18.85
2022-09-28T03:46:27.554Z,16.73
2022-09-28T03:49:01.610Z,16.92
2022-09-28T03:51:31.089Z,19.58
2022-09-28T03:54:00.087Z,23.70
2022-09-28T03:56:29.034Z,21.35
2022-09-28T03:58:58.046Z,17.00
2022-09-28T04:01:30.649Z,16.67
2022-09-28T04:04:01.575Z,24.20
2022-09-28T04:06:30.637Z,31.40
2022-09-28T04:09:00.049Z,26.58
2022-09-28T04:11:42.860Z,39.03
2022-09-28T04:14:18.263Z,23.05
2022-09-28T04:17:07.315Z,23.20
2022-09-28T04:19:38.472Z,17.30
2022-09-28T04:22:27.577Z,16.05
2022-09-28T04:24:59.103Z,17.60
2022-09-28T04:27:45.628Z,17.63
2022-09-28T04:30:15.064Z,21.15
2022-09-28T04:32:48.118Z,23.47
2022-09-28T04:35:19.169Z,23.73
2022-09-28T04:37:49.179Z,22.00
2022-09-28T04:40:18.363Z,23.83
2022-09-28T04:42:55.918Z,24.98
2022-09-28T04:45:27.013Z,19.03
2022-09-28T04:47:59.480Z,22.10
2022-09-28T04:51:08.408Z,21.65
2022-09-28T04:53:37.498Z,18.13
2022-09-28T04:56:09.841Z,15.60
2022-09-28T04:58:41.354Z,17.97
2022-09-28T05:01:13.561Z,16.50
2022-09-28T05:04:11.305Z,22.13
2022-09-28T05:07:10.768Z,17.27
2022-09-28T05:09:40.327Z,27.70
2022-09-28T05:12:10.752Z,22.37
2022-09-28T05:14:40.176Z,21.98
2022-09-28T05:17:14.673Z,21.10
2022-09-28T05:20:00.890Z,20.20
2022-09-28T05:22:34.906Z,20.77
2022-09-28T05:25:03.975Z,19.37
2022-09-28T05:27:40.294Z,24.98
2022-09-28T05:30:24.249Z,16.58
2022-09-28T05:33:25.032Z,19.20
2022-09-28T05:36:06.290Z,16.27
2022-09-28T05:38:36.702Z,14.97
2022-09-28T05:41:08.613Z,13.50
2022-09-28T05:43:38.955Z,16.60
2022-09-28T05:46:08.603Z,16.33
2022-09-28T05:48:41.910Z,15.82
2022-09-28T05:51:12.226Z,15.70
2022-09-28T05:54:51.252Z,13.35
2022-09-28T05:57:50.339Z,13.05
2022-09-28T06:00:23.853Z,14.60
2022-09-28T06:03:22.805Z,13.93
2022-09-28T06:09:47.846Z,18.63
2022-09-28T06:12:25.779Z,13.77
2022-09-28T06:15:04.649Z,24.25
2022-09-28T06:17:33.503Z,16.73
2022-09-28T06:20:35.832Z,11.97
2022-09-28T06:23:15.896Z,13.02
2022-09-28T06:25:48.514Z,13.45
2022-09-28T06:29:01.515Z,12.48
2022-09-28T06:31:43.054Z,14.55
2022-09-28T06:34:36.112Z,14.37
2022-09-28T06:37:12.747Z,11.90
2022-09-28T06:39:42.470Z,16.05
2022-09-28T06:42:12.997Z,16.05
2022-09-28T06:45:06.201Z,11.18
2022-09-28T06:48:27.225Z,12.37
2022-09-28T06:50:58.645Z,14.80
2022-09-28T06:53:54.095Z,13.30
2022-09-28T06:56:46.451Z,13.05
2022-09-28T06:59:20.586Z,15.15
2022-09-28T07:01:56.461Z,15.13
2022-09-28T07:05:03.656Z,15.25
2022-09-28T07:07:45.073Z,15.48
2022-09-28T07:10:28.450Z,14.35
2022-09-28T07:13:43.408Z,18.05
2022-09-28T07:16:13.395Z,14.10
2022-09-28T07:18:53.446Z,15.50
2022-09-28T07:21:30.644Z,18.58
2022-09-28T07:24:06.760Z,26.45
2022-09-28T07:27:05.775Z,20.15
2022-09-28T07:29:54.765Z,20.93
2022-09-28T07:35:05.085Z,25.25
2022-09-28T07:37:49.407Z,25.80
2022-09-28T07:40:37.795Z,27.40
2022-09-28T07:43:08.043Z,25.00
2022-09-28T07:45:42.483Z,25.58
2022-09-28T07:48:13.946Z,25.08
2022-09-28T07:51:02.804Z,19.80
2022-09-28T07:53:41.846Z,24.33
2022-09-28T07:56:31.167Z,19.60
2022-09-28T07:59:29.280Z,21.25
2022-09-28T08:02:20.342Z,27.98
2022-09-28T08:04:51.493Z,20.15
2022-09-28T08:07:23.843Z,28.45
2022-09-28T08:10:00.186Z,22.97
2022-09-28T08:12:29.285Z,18.38
2022-09-28T08:15:27.015Z,16.08
2022-09-28T08:18:09.404Z,20.17
2022-09-28T08:21:03.294Z,22.35
2022-09-28T08:23:32.376Z,16.17
2022-09-28T08:26:04.504Z,19.67
2022-09-28T08:28:35.988Z,24.25
2022-09-28T08:31:25.049Z,20.90
2022-09-28T08:34:33.219Z,16.08
2022-09-28T08:37:34.135Z,15.63
2022-09-28T08:40:26.985Z,15.38
2022-09-28T08:43:38.519Z,13.30
2022-09-28T08:46:30.467Z,10.60
2022-09-28T08:49:29.913Z,10.00
2022-09-28T08:52:25.121Z,12.07
2022-09-28T08:55:33.768Z,8.05
2022-09-28T08:58:08.024Z,8.07
2022-09-28T09:00:49.434Z,10.75
2022-09-28T09:03:28.867Z,7.38
2022-09-28T09:07:04.525Z,8.63
2022-09-28T09:10:00.686Z,6.68
2022-09-28T09:12:44.273Z,7.57
2022-09-28T09:15:38.889Z,12.25
2022-09-28T09:18:32.743Z,6.78
2022-09-28T09:21:27.985Z,5.90
2022-09-28T09:24:01.627Z,4.95
2022-09-28T09:27:10.535Z,6.38
2022-09-28T09:30:07.288Z,9.30
2022-09-28T09:33:29.771Z,6.18
2022-09-28T09:36:47.996Z,5.97
2022-09-28T09:40:12.073Z,7.50
2022-09-28T09:43:40.176Z,6.38
2022-09-28T09:46:55.857Z,7.32
2022-09-28T09:49:40.795Z,5.32
2022-09-28T09:52:25.513Z,5.33
2022-09-28T09:55:01.392Z,8.50
2022-09-28T09:57:46.636Z,6.80
2022-09-28T10:00:34.127Z,8.02
2022-09-28T10:04:01.024Z,4.88
2022-09-28T10:06:36.145Z,5.57
2022-09-28T10:09:30.317Z,5.10
2022-09-28T10:12:22.090Z,4.95
2022-09-28T10:14:53.312Z,5.40
2022-09-28T10:17:26.967Z,4.68
2022-09-28T10:20:19.966Z,3.57
2022-09-28T10:23:07.224Z,3.60
2022-09-28T10:25:52.920Z,4.40
2022-09-28T10:29:09.387Z,5.18
2022-09-28T10:31:45.105Z,5.18
2022-09-28T10:34:29.581Z,3.70
2022-09-28T10:37:09.373Z,3.72
2022-09-28T10:39:58.484Z,3.22
2022-09-28T10:42:36.268Z,3.42
2022-09-28T10:45:23.404Z,4.25
2022-09-28T10:47:55.822Z,4.90
2022-09-28T10:50:30.501Z,4.00
2022-09-28T10:53:21.311Z,5.13
2022-09-28T10:56:22.930Z,5.47
2022-09-28T10:59:00.389Z,4.90
2022-09-28T11:01:43.540Z,3.27
2022-09-28T11:04:23.947Z,4.43
2022-09-28T11:09:33.843Z,3.88
2022-09-28T11:12:17.097Z,4.93
2022-09-28T11:14:52.704Z,5.27
2022-09-28T11:17:31.162Z,4.22
2022-09-28T11:20:27.041Z,7.07
2022-09-28T11:23:01.592Z,4.15
2022-09-28T11:25:39.807Z,6.60
2022-09-28T11:28:24.707Z,5.17
2022-09-28T11:30:56.084Z,9.45
2022-09-28T11:33:43.436Z,7.32
2022-09-28T11:37:02.657Z,4.03
2022-09-28T11:39:47.617Z,3.63
2022-09-28T11:42:42.935Z,4.13
2022-09-28T11:45:38.446Z,6.53
2022-09-28T11:48:13.646Z,5.97
2022-09-28T11:50:50.871Z,6.45
2022-09-28T11:53:36.810Z,5.63
2022-09-28T11:56:18.885Z,6.33
2022-09-28T11:58:54.770Z,6.75
2022-09-28T12:01:53.796Z,7.43
2022-09-28T12:04:59.547Z,7.35
2022-09-28T12:07:37.752Z,5.53
2022-09-28T12:10:21.250Z,8.03
2022-09-28T12:13:00.223Z,27.27
2022-09-28T12:16:12.759Z,7.72
2022-09-28T12:18:43.671Z,6.00
2022-09-28T12:21:37.969Z,3.75
2022-09-28T12:24:21.919Z,4.30
2022-09-28T12:26:58.125Z,5.28
2022-09-28T12:29:34.110Z,4.50
2022-09-28T12:32:47.632Z,3.60
2022-09-28T12:35:43.350Z,3.88
2022-09-28T12:39:08.533Z,2.27
2022-09-28T12:41:59.925Z,4.85
2022-09-28T12:45:11.781Z,3.65
2022-09-28T12:51:43.615Z,2.65
2022-09-28T13:02:02.569Z,5.72
2022-09-28T13:04:58.339Z,7.90
2022-09-28T13:07:38.371Z,8.35
2022-09-28T13:10:24.623Z,6.30
2022-09-28T13:13:17.798Z,6.70
2022-09-28T13:15:58.034Z,6.18
2022-09-28T13:18:34.904Z,5.18
2022-09-28T13:21:24.111Z,6.10
2022-09-28T13:24:08.720Z,6.50
2022-09-28T13:26:49.218Z,9.63
2022-09-28T13:29:22.283Z,5.63
2022-09-28T13:31:56.811Z,6.75
2022-09-28T13:34:30.291Z,6.55
2022-09-28T13:37:25.616Z,6.00
2022-09-28T13:39:56.814Z,13.80
2022-09-28T13:43:19.405Z,18.67
2022-09-28T13:45:57.503Z,6.35
2022-09-28T13:48:42.601Z,6.82
2022-09-28T13:51:39.246Z,8.80
2022-09-28T13:54:41.364Z,8.00
2022-09-28T13:57:24.218Z,7.32
2022-09-28T14:00:08.633Z,12.25
2022-09-28T14:02:49.417Z,7.93
2022-09-28T14:10:21.290Z,9.25
2022-09-28T14:13:09.979Z,10.13
2022-09-28T14:15:54.177Z,9.98
2022-09-28T14:18:32.416Z,9.30
2022-09-28T14:21:36.051Z,6.77
2022-09-28T14:24:22.712Z,5.93
2022-09-28T14:31:26.182Z,5.90
2022-09-28T14:34:32.398Z,3.50
2022-09-28T14:37:58.962Z,6.70
2022-09-28T14:41:26.864Z,5.22
2022-09-28T14:44:09.296Z,4.38
2022-09-28T14:47:45.308Z,5.40
2022-09-28T14:50:27.101Z,5.72
2022-09-28T14:53:21.192Z,4.93
2022-09-28T14:55:55.484Z,4.70
2022-09-28T14:59:23.088Z,4.75
2022-09-28T15:02:15.088Z,5.82
2022-09-28T15:05:12.067Z,4.75
2022-09-28T15:07:59.908Z,6.30
2022-09-28T15:10:34.444Z,4.88
2022-09-28T15:13:16.902Z,5.85
2022-09-28T15:15:51.001Z,5.55
2022-09-28T15:19:15.998Z,5.75
2022-09-28T15:21:47.742Z,4.37
2022-09-28T15:24:53.402Z,3.88
2022-09-28T15:27:22.497Z,6.63
2022-09-28T15:30:29.582Z,5.80
2022-09-28T15:33:37.173Z,4.97
2022-09-28T15:39:52.282Z,3.35
2022-09-28T15:42:22.915Z,5.45
2022-09-28T15:45:27.756Z,5.18
2022-09-28T15:48:21.530Z,4.63
2022-09-28T15:51:10.342Z,5.97
2022-09-28T15:53:44.966Z,5.43
2022-09-28T15:56:14.060Z,5.10
2022-09-28T15:58:43.796Z,4.82
2022-09-28T16:01:37.139Z,4.03
2022-09-28T16:04:49.130Z,7.13
2022-09-28T16:07:25.737Z,6.20
2022-09-28T16:10:06.506Z,4.18
2022-09-28T16:12:46.140Z,5.10
2022-09-28T16:15:21.593Z,6.63
2022-09-28T16:17:56.831Z,5.97
2022-09-28T16:20:32.274Z,7.32
2022-09-28T16:23:09.499Z,6.53
2022-09-28T16:25:40.240Z,4.75
2022-09-28T16:28:26.567Z,6.82
2022-09-28T16:31:08.560Z,6.43
2022-09-28T16:33:45.290Z,6.50
2022-09-28T16:36:18.943Z,6.43
2022-09-28T16:38:48.362Z,5.45
2022-09-28T16:41:23.306Z,7.38
2022-09-28T16:44:03.850Z,5.53
2022-09-28T16:46:37.622Z,6.03
2022-09-28T16:49:08.500Z,5.93
2022-09-28T16:51:40.244Z,4.32
2022-09-28T16:54:35.564Z,4.57
2022-09-28T16:57:06.914Z,3.57
2022-09-28T16:59:38.473Z,4.57
2022-09-28T17:02:45.725Z,4.70
2022-09-28T17:05:17.053Z,5.80
2022-09-28T17:07:49.227Z,4.72
2022-09-28T17:10:25.563Z,6.70
2022-09-28T17:12:54.783Z,5.60
2022-09-28T17:15:26.117Z,5.93
2022-09-28T17:17:58.329Z,6.45
2022-09-28T17:20:30.518Z,5.30
2022-09-28T17:23:02.367Z,6.07
2022-09-28T17:25:32.644Z,6.28
2022-09-28T17:28:05.108Z,4.85
2022-09-28T17:30:34.498Z,6.43
2022-09-28T17:33:04.162Z,5.85
2022-09-28T17:35:39.754Z,6.30
2022-09-28T17:38:13.886Z,8.48
2022-09-28T17:40:45.072Z,7.25
2022-09-28T17:43:16.127Z,6.18
2022-09-28T17:45:48.957Z,6.03
2022-09-28T17:48:21.956Z,5.77
2022-09-28T17:50:56.201Z,5.13
2022-09-28T17:53:27.297Z,5.45
2022-09-28T17:55:57.070Z,5.00
2022-09-28T17:58:26.589Z,5.72
2022-09-28T18:00:56.121Z,6.03
2022-09-28T18:03:42.490Z,5.40
2022-09-28T18:06:22.701Z,5.15
2022-09-28T18:09:06.096Z,5.93
2022-09-28T18:11:48.060Z,4.25
2022-09-28T18:14:17.684Z,4.27
2022-09-28T18:16:59.545Z,5.95
2022-09-28T18:19:33.939Z,4.20
2022-09-28T18:22:03.677Z,5.78
2022-09-28T18:24:37.372Z,5.30
2022-09-28T18:27:06.980Z,6.30
2022-09-28T18:29:39.829Z,6.15
2022-09-28T18:32:18.019Z,7.10
2022-09-28T18:34:52.506Z,4.25
2022-09-28T18:37:31.084Z,5.38
2022-09-28T18:40:02.242Z,5.03
2022-09-28T18:42:38.878Z,5.07
2022-09-28T18:45:20.206Z,5.75
2022-09-28T18:47:49.707Z,5.53
2022-09-28T18:50:20.149Z,4.75
2022-09-28T18:52:53.397Z,5.30
2022-09-28T18:55:31.910Z,4.65
2022-09-28T18:58:13.708Z,4.60
2022-09-28T19:00:44.836Z,4.45
2022-09-28T19:03:52.295Z,5.35
2022-09-28T19:06:23.368Z,5.53
2022-09-28T19:08:55.944Z,3.58
2022-09-28T19:11:27.491Z,12.45
2022-09-28T19:14:01.507Z,6.25
2022-09-28T19:16:35.197Z,5.55
2022-09-28T19:19:09.624Z,3.73
2022-09-28T19:21:40.108Z,3.25
2022-09-28T19:24:10.416Z,5.10
2022-09-28T19:26:43.172Z,4.22
2022-09-28T19:29:22.792Z,4.45
2022-09-28T19:31:54.483Z,5.30
2022-09-28T19:34:27.085Z,4.75
2022-09-28T19:36:56.467Z,4.20
2022-09-28T19:39:25.839Z,3.97
2022-09-28T19:41:59.889Z,3.67
2022-09-28T19:44:35.989Z,3.43
2022-09-28T19:47:11.763Z,4.28
2022-09-28T19:49:42.372Z,4.07
2022-09-28T19:52:17.341Z,2.97
2022-09-28T19:54:57.024Z,2.67
2022-09-28T19:57:42.978Z,3.57
2022-09-28T20:00:20.793Z,1.85
2022-09-28T20:02:53.304Z,2.10
2022-09-28T20:05:23.863Z,2.95
2022-09-28T20:07:53.154Z,2.20
2022-09-28T20:10:22.501Z,3.20
2022-09-28T20:12:55.769Z,3.05
2022-09-28T20:15:27.870Z,3.60
2022-09-28T20:18:00.008Z,4.75
2022-09-28T20:20:29.404Z,4.40
2022-09-28T20:22:58.899Z,3.70
2022-09-28T20:25:28.331Z,5.32
2022-09-28T20:27:59.073Z,4.82
2022-09-28T20:30:28.317Z,3.97
2022-09-28T20:32:57.795Z,2.63
2022-09-28T20:35:32.933Z,4.17
2022-09-28T20:38:08.183Z,4.32
2022-09-28T20:40:42.341Z,3.00
2022-09-28T20:43:13.375Z,4.65
2022-09-28T20:45:43.127Z,3.38
2022-09-28T20:48:12.170Z,3.87
2022-09-28T20:50:42.823Z,3.55
2022-09-28T20:53:12.007Z,3.35
2022-09-28T20:55:40.916Z,6.05
2022-09-28T20:58:09.741Z,5.05
2022-09-28T21:00:40.172Z,3.87
2022-09-28T21:03:10.263Z,4.85
2022-09-28T21:05:39.104Z,5.43
2022-09-28T21:08:07.756Z,5.80
2022-09-28T21:10:36.634Z,4.30
2022-09-28T21:13:05.619Z,2.77
2022-09-28T21:15:35.257Z,5.43
2022-09-28T21:18:05.669Z,5.00
2022-09-28T21:20:34.403Z,6.03
2022-09-28T21:23:03.126Z,5.20
2022-09-28T21:25:31.848Z,4.53
2022-09-28T21:28:00.614Z,4.85
2022-09-28T21:30:29.395Z,6.00
2022-09-28T21:32:58.433Z,5.05
2022-09-28T21:35:28.677Z,5.57
2022-09-28T21:37:57.429Z,4.97
2022-09-28T21:40:26.166Z,5.38
2022-09-28T21:42:55.016Z,5.50
2022-09-28T21:45:25.287Z,6.68
2022-09-28T21:47:54.507Z,4.97
2022-09-28T21:50:25.461Z,3.80
2022-09-28T21:52:57.115Z,4.35
2022-09-28T21:55:26.367Z,4.28
2022-09-28T21:57:55.136Z,5.70
2022-09-28T22:00:24.489Z,5.28
2022-09-28T22:02:53.493Z,4.40
2022-09-28T22:05:22.232Z,4.25
2022-09-28T22:07:51.015Z,3.90
2022-09-28T22:10:21.272Z,3.75
2022-09-28T22:12:50.897Z,4.10
2022-09-28T22:15:19.596Z,4.43
2022-09-28T22:17:48.377Z,3.72
2022-09-28T22:20:17.385Z,4.13
2022-09-28T22:22:50.953Z,3.05
2022-09-28T22:25:21.231Z,3.80
2022-09-28T22:27:49.989Z,3.37
2022-09-28T22:30:18.899Z,3.35
2022-09-28T22:32:47.786Z,4.75
2022-09-28T22:35:16.687Z,3.85
2022-09-28T22:37:45.445Z,2.97
2022-09-28T22:40:14.682Z,4.40
2022-09-28T22:42:44.726Z,4.22
2022-09-28T22:45:13.397Z,4.65
2022-09-28T22:47:42.785Z,4.18
2022-09-28T22:50:11.775Z,3.70
2022-09-28T22:52:40.476Z,4.13
2022-09-28T22:55:10.199Z,3.30
2022-09-28T22:57:39.491Z,5.03
2022-09-28T23:00:11.412Z,5.43
2022-09-28T23:02:40.244Z,4.70
2022-09-28T23:05:09.202Z,3.63
2022-09-28T23:07:38.173Z,3.83
2022-09-28T23:10:08.134Z,4.63
2022-09-28T23:12:38.170Z,5.10
2022-09-28T23:15:10.531Z,4.63
2022-09-28T23:17:39.369Z,4.87
2022-09-28T23:20:09.068Z,5.20
2022-09-28T23:22:38.081Z,4.32
2022-09-28T23:25:08.162Z,4.55
2022-09-28T23:27:36.941Z,5.20
2022-09-28T23:30:06.509Z,3.37
2022-09-28T23:32:37.001Z,4.60
2022-09-28T23:35:07.020Z,4.05
2022-09-28T23:37:58.219Z,3.50
2022-09-28T23:40:33.062Z,4.38
2022-09-28T23:43:01.866Z,5.07
2022-09-28T23:45:30.574Z,3.47
2022-09-28T23:48:00.769Z,5.57
2022-09-28T23:50:29.475Z,5.30
2022-09-28T23:52:58.224Z,4.38
2022-09-28T23:55:26.843Z,5.80
2022-09-28T23:57:56.813Z,7.25
